Boynton Beach, FL

8:32 AM EDT on May 06, 2015 (GMT -0400)
Princeton Place 2 | | Change Station
CLOSE
Current Station
Personal Weather Station
Location: Boynton Beach, FL
Elevation: 14 ft
Nearby Weather Stations

Elev 14 ft 26.55 °N, 80.12 °W | Updated 5 days ago

Mostly Cloudy
Mostly Cloudy
75 °F
Feels Like 75 °F
N
9
Wind Variable Wind from NW
Gusts mph

Today
High -- | Low -- °F
--% Chance of Precip.
Yesterday
High -- | Low -- °F
Precip. -- in
6:39 AM 7:55 PM
Waning Gibbous, 94% visible
Pressure 30.00 in
Visibility 7.0 miles
Clouds Scattered Clouds 700 ft
Mostly Cloudy 1500 ft
Mostly Cloudy 4300 ft
Dew Point 69 °F
Humidity 83%
Rainfall in
Snow Depth Not available.
UV 1 out of 12
Pollen 4.50 out of 12
Air Quality Not available.
Flu Activity Local Activity
METAR KPBI 061153Z 33013KT 7SM SCT007 BKN015 BKN043 21/20 A3000 RMK AO2 RAE04 SLP159 P0000 60053 70066 T02110200 10211 20206 53010 $

More Conditions Fewer Conditions

Pressure 30.00 in
Visibility 7.0 miles
Clouds Scattered Clouds 700 ft
Mostly Cloudy 1500 ft
Mostly Cloudy 4300 ft
Dew Point 69 °F
Humidity 83%
Rainfall in
Snow Depth Not available.
UV 1 out of 12
Pollen 4.50 out of 12
Air Quality Not available.
Flu Activity Local Activity
METAR KPBI 061153Z 33013KT 7SM SCT007 BKN015 BKN043 21/20 A3000 RMK AO2 RAE04 SLP159 P0000 60053 70066 T02110200 10211 20206 53010 $

More Conditions Fewer Conditions

10-Day Weather Forecast

Almanac

Astronomy

May. 06, 2015 Rise Set
Actual Time
Civil Twilight
Nautical Twilight
Astronomical Twilight
Moon
Length of Visible Light
Length of Day
Tomorrow will be .
, % of the Moon is Illuminated

Today's Extremes

State Highs State Lows

Community

WunderPhotos

Upload Photos

1,818,884 photos uploaded!

WunderBlogs® & News

Nearby

Air Quality

  Air Quality AQ Index Pollutant
Not available.

Snow Depth

Station Depth Elevation

Earthquake Activity

City Distance Mag. Time & Date
Minimum magnitude displayed is 2.5.

Coastal Water Temperatures

Place Temperature

Stations

Nearby Weather Stations

Station Location Temp. Windchill Dew Point Humidity Wind Precip. Elev Updated Type